createdAt,value
2022-08-12T00:00:32.961Z,21.83
2022-08-12T00:02:04.399Z,21.82
2022-08-12T00:02:32.970Z,21.73
2022-08-12T00:03:33.040Z,21.60
2022-08-12T00:04:32.975Z,21.57
2022-08-12T00:05:32.981Z,21.50
2022-08-12T00:06:32.998Z,21.51
2022-08-12T00:07:32.988Z,21.50
2022-08-12T00:08:36.977Z,21.42
2022-08-12T00:09:32.993Z,21.40
2022-08-12T00:10:32.995Z,21.42
2022-08-12T00:11:33.001Z,21.33
2022-08-12T00:12:33.003Z,21.36
2022-08-12T00:13:33.013Z,21.27
2022-08-12T00:14:33.012Z,21.29
2022-08-12T00:15:33.012Z,21.27
2022-08-12T00:16:33.016Z,21.18
2022-08-12T00:17:33.020Z,21.24
2022-08-12T00:18:33.022Z,21.12
2022-08-12T00:19:33.025Z,21.09
2022-08-12T00:20:33.036Z,21.06
2022-08-12T00:21:33.033Z,21.06
2022-08-12T00:22:33.038Z,21.03
2022-08-12T00:23:33.038Z,21.00
2022-08-12T00:24:33.044Z,20.99
2022-08-12T00:26:01.278Z,20.93
2022-08-12T00:26:33.050Z,20.92
2022-08-12T00:27:43.854Z,20.95
2022-08-12T00:28:33.057Z,20.93
2022-08-12T00:29:33.060Z,20.92
2022-08-12T00:30:33.067Z,20.85
2022-08-12T00:31:33.064Z,20.90
2022-08-12T00:32:35.938Z,20.84
2022-08-12T00:33:38.750Z,20.80
2022-08-12T00:34:33.075Z,20.72
2022-08-12T00:35:36.867Z,20.78
2022-08-12T00:36:35.904Z,20.72
2022-08-12T00:37:33.084Z,20.69
2022-08-12T00:38:33.084Z,20.59
2022-08-12T00:39:33.161Z,20.60
2022-08-12T00:40:33.094Z,20.59
2022-08-12T00:41:33.096Z,20.62
2022-08-12T00:42:33.102Z,20.58
2022-08-12T00:43:33.104Z,20.60
2022-08-12T00:44:33.106Z,20.55
2022-08-12T00:45:33.107Z,20.52
2022-08-12T00:46:33.108Z,20.47
2022-08-12T00:47:33.116Z,20.40
2022-08-12T00:48:33.115Z,20.36
2022-08-12T00:49:33.120Z,20.32
2022-08-12T00:50:33.120Z,20.32
2022-08-12T00:51:33.124Z,20.34
2022-08-12T00:52:33.133Z,20.25
2022-08-12T00:53:33.131Z,20.34
2022-08-12T00:54:33.135Z,20.31
2022-08-12T00:55:33.135Z,20.34
2022-08-12T00:56:33.588Z,20.36
2022-08-12T00:57:33.143Z,20.32
2022-08-12T00:58:33.146Z,20.37
2022-08-12T00:59:33.145Z,20.41
2022-08-12T01:00:33.149Z,20.40
2022-08-12T01:02:10.296Z,20.37
2022-08-12T01:02:33.155Z,20.34
2022-08-12T01:03:33.170Z,20.22
2022-08-12T01:04:33.163Z,20.14
2022-08-12T01:05:33.166Z,19.99
2022-08-12T01:06:33.170Z,19.94
2022-08-12T01:07:33.170Z,19.86
2022-08-12T01:08:33.173Z,19.86
2022-08-12T01:09:33.183Z,19.74
2022-08-12T01:10:33.410Z,19.73
2022-08-12T01:11:33.256Z,19.74
2022-08-12T01:12:33.183Z,19.67
2022-08-12T01:13:33.187Z,19.55
2022-08-12T01:14:33.188Z,19.55
2022-08-12T01:15:33.190Z,19.51
2022-08-12T01:16:33.199Z,19.47
2022-08-12T01:17:33.196Z,19.48
2022-08-12T01:18:33.204Z,19.48
2022-08-12T01:19:33.205Z,19.39
2022-08-12T01:20:33.207Z,19.37
2022-08-12T01:21:33.207Z,19.37
2022-08-12T01:22:33.208Z,19.29
2022-08-12T01:23:33.214Z,19.26
2022-08-12T01:24:33.220Z,19.26
2022-08-12T01:25:33.222Z,19.30
2022-08-12T01:26:33.221Z,19.33
2022-08-12T01:27:33.224Z,19.29
2022-08-12T01:28:33.229Z,19.31
2022-08-12T01:29:33.572Z,19.26
2022-08-12T01:30:33.230Z,19.29
2022-08-12T01:31:33.232Z,19.31
2022-08-12T01:32:33.236Z,19.36
2022-08-12T01:33:33.239Z,19.26
2022-08-12T01:34:36.400Z,19.21
2022-08-12T01:35:33.245Z,19.22
2022-08-12T01:36:33.246Z,19.26
2022-08-12T01:37:33.247Z,19.14
2022-08-12T01:38:33.249Z,19.16
2022-08-12T01:39:33.379Z,19.21
2022-08-12T01:40:37.699Z,19.14
2022-08-12T01:41:33.266Z,19.07
2022-08-12T01:42:33.263Z,18.93
2022-08-12T01:43:33.264Z,18.92
2022-08-12T01:44:33.264Z,18.90
2022-08-12T01:45:42.887Z,18.99
2022-08-12T01:46:33.266Z,18.92
2022-08-12T01:47:33.271Z,18.89
2022-08-12T01:48:33.271Z,18.93
2022-08-12T01:49:33.278Z,18.86
2022-08-12T01:50:33.292Z,18.88
2022-08-12T01:52:21.869Z,18.83
2022-08-12T01:52:33.292Z,18.78
2022-08-12T01:53:33.285Z,18.63
2022-08-12T01:54:33.284Z,18.65
2022-08-12T01:55:33.293Z,18.62
2022-08-12T01:56:33.639Z,18.59
2022-08-12T01:57:59.575Z,18.50
2022-08-12T01:58:33.293Z,18.59
2022-08-12T01:59:33.297Z,18.52
2022-08-12T02:00:35.954Z,18.47
2022-08-12T02:01:33.355Z,18.47
2022-08-12T02:02:33.302Z,18.52
2022-08-12T02:03:33.310Z,18.52
2022-08-12T02:04:33.308Z,18.45
2022-08-12T02:05:33.371Z,18.45
2022-08-12T02:06:33.314Z,18.43
2022-08-12T02:07:33.316Z,18.45
2022-08-12T02:08:33.315Z,18.41
2022-08-12T02:09:33.321Z,18.33
2022-08-12T02:10:50.058Z,18.35
2022-08-12T02:11:33.321Z,18.34
2022-08-12T02:12:33.324Z,18.35
2022-08-12T02:13:48.822Z,18.33
2022-08-12T02:14:33.329Z,18.35
2022-08-12T02:15:33.331Z,18.37
2022-08-12T02:16:33.330Z,18.28
2022-08-12T02:17:55.436Z,18.20
2022-08-12T02:18:33.336Z,18.26
2022-08-12T02:19:33.341Z,18.19
2022-08-12T02:20:35.295Z,18.31
2022-08-12T02:21:33.343Z,18.20
2022-08-12T02:22:33.345Z,18.33
2022-08-12T02:23:33.347Z,18.31
2022-08-12T02:24:33.350Z,18.35
2022-08-12T02:25:33.355Z,18.15
2022-08-12T02:26:33.351Z,18.19
2022-08-12T02:27:33.359Z,18.23
2022-08-12T02:28:33.363Z,18.10
2022-08-12T02:29:33.358Z,18.13
2022-08-12T02:30:42.094Z,18.07
2022-08-12T02:31:33.366Z,17.97
2022-08-12T02:32:33.363Z,17.94
2022-08-12T02:33:33.368Z,18.01
2022-08-12T02:34:33.367Z,17.95
2022-08-12T02:35:33.371Z,17.95
2022-08-12T02:36:33.371Z,18.03
2022-08-12T02:37:33.376Z,18.01
2022-08-12T02:38:33.375Z,18.13
2022-08-12T02:39:33.475Z,18.10
2022-08-12T02:40:33.381Z,18.16
2022-08-12T02:41:33.381Z,18.15
2022-08-12T02:42:33.383Z,18.01
2022-08-12T02:43:33.391Z,18.05
2022-08-12T02:44:33.389Z,17.97
2022-08-12T02:45:33.391Z,18.00
2022-08-12T02:46:33.390Z,17.95
2022-08-12T02:47:59.391Z,17.83
2022-08-12T02:48:33.399Z,17.86
2022-08-12T02:49:33.400Z,17.86
2022-08-12T02:50:33.398Z,17.83
2022-08-12T02:51:33.402Z,17.83
2022-08-12T02:52:33.401Z,17.86
2022-08-12T02:53:33.407Z,17.94
2022-08-12T02:54:33.404Z,17.94
2022-08-12T02:55:34.935Z,17.95
2022-08-12T02:56:33.608Z,17.98
2022-08-12T02:57:33.412Z,17.92
2022-08-12T02:58:33.709Z,17.94
2022-08-12T02:59:33.416Z,17.95
2022-08-12T03:00:33.415Z,17.94
2022-08-12T03:01:33.473Z,17.86
2022-08-12T03:02:33.419Z,17.85
2022-08-12T03:03:33.423Z,17.80
2022-08-12T03:04:33.422Z,17.72
2022-08-12T03:05:33.430Z,17.71
2022-08-12T03:06:33.425Z,17.51
2022-08-12T03:07:55.810Z,17.57
2022-08-12T03:08:33.430Z,17.52
2022-08-12T03:09:38.178Z,17.49
2022-08-12T03:10:37.104Z,17.31
2022-08-12T03:11:33.438Z,17.38
2022-08-12T03:12:34.096Z,17.38
2022-08-12T03:13:33.456Z,17.29
2022-08-12T03:14:33.441Z,17.34
2022-08-12T03:15:33.443Z,17.34
2022-08-12T03:16:33.597Z,17.38
2022-08-12T03:17:33.450Z,17.44
2022-08-12T03:18:33.446Z,17.39
2022-08-12T03:19:33.452Z,17.46
2022-08-12T03:20:33.451Z,17.48
2022-08-12T03:21:55.335Z,17.44
2022-08-12T03:22:33.455Z,17.52
2022-08-12T03:23:33.456Z,17.38
2022-08-12T03:24:33.484Z,17.38
2022-08-12T03:25:33.458Z,17.39
2022-08-12T03:26:33.459Z,17.31
2022-08-12T03:27:33.461Z,17.27
2022-08-12T03:28:33.464Z,17.23
2022-08-12T03:29:33.468Z,17.30
2022-08-12T03:30:33.464Z,17.24
2022-08-12T03:31:33.475Z,17.29
2022-08-12T03:32:36.025Z,17.27
2022-08-12T03:33:33.477Z,17.24
2022-08-12T03:34:33.471Z,17.20
2022-08-12T03:35:41.061Z,17.20
2022-08-12T03:36:33.606Z,17.15
2022-08-12T03:37:33.480Z,17.12
2022-08-12T03:38:33.484Z,16.94
2022-08-12T03:39:36.174Z,16.97
2022-08-12T03:40:33.482Z,16.94
2022-08-12T03:41:33.483Z,16.96
2022-08-12T03:42:33.483Z,16.94
2022-08-12T03:43:33.486Z,16.86
2022-08-12T03:44:33.486Z,16.84
2022-08-12T03:45:33.491Z,16.79
2022-08-12T03:46:33.491Z,16.84
2022-08-12T03:47:33.493Z,16.87
2022-08-12T03:48:33.495Z,16.84
2022-08-12T03:49:33.496Z,16.81
2022-08-12T03:50:33.494Z,16.91
2022-08-12T03:51:33.497Z,16.87
2022-08-12T03:52:33.501Z,16.83
2022-08-12T03:53:33.513Z,16.91
2022-08-12T03:54:33.500Z,16.87
2022-08-12T03:55:33.505Z,16.91
2022-08-12T03:56:33.856Z,16.97
2022-08-12T03:57:33.512Z,16.81
2022-08-12T03:58:33.508Z,16.96
2022-08-12T03:59:33.511Z,16.86
2022-08-12T04:00:33.573Z,16.94
2022-08-12T04:01:33.517Z,16.93
2022-08-12T04:02:33.512Z,16.91
2022-08-12T04:03:33.521Z,16.94
2022-08-12T04:04:33.518Z,16.96
2022-08-12T04:05:33.518Z,16.94
2022-08-12T04:06:35.171Z,16.97
2022-08-12T04:07:33.522Z,17.11
2022-08-12T04:08:33.519Z,17.11
2022-08-12T04:09:33.522Z,17.02
2022-08-12T04:10:33.523Z,17.06
2022-08-12T04:11:33.526Z,16.97
2022-08-12T04:12:33.570Z,17.08
2022-08-12T04:13:33.529Z,17.04
2022-08-12T04:14:33.526Z,16.96
2022-08-12T04:15:33.528Z,16.84
2022-08-12T04:16:33.529Z,16.81
2022-08-12T04:17:33.534Z,16.75
2022-08-12T04:18:33.542Z,16.74
2022-08-12T04:19:33.535Z,16.68
2022-08-12T04:20:33.537Z,16.61
2022-08-12T04:21:33.546Z,16.60
2022-08-12T04:22:33.546Z,16.57
2022-08-12T04:23:33.542Z,16.60
2022-08-12T04:24:33.545Z,16.61
2022-08-12T04:25:33.550Z,16.60
2022-08-12T04:26:33.558Z,16.60
2022-08-12T04:27:33.551Z,16.51
2022-08-12T04:28:33.546Z,16.60
2022-08-12T04:30:29.308Z,16.61
2022-08-12T04:30:33.893Z,16.65
2022-08-12T04:31:33.555Z,16.65
2022-08-12T04:32:33.551Z,16.71
2022-08-12T04:33:33.550Z,16.61
2022-08-12T04:34:33.551Z,16.64
2022-08-12T04:35:33.554Z,16.56
2022-08-12T04:36:33.557Z,16.54
2022-08-12T04:37:59.399Z,16.54
2022-08-12T04:38:33.557Z,16.54
2022-08-12T04:39:33.618Z,16.57
2022-08-12T04:40:33.568Z,16.58
2022-08-12T04:41:33.563Z,16.54
2022-08-12T04:42:33.561Z,16.60
2022-08-12T04:43:59.746Z,16.56
2022-08-12T04:44:33.563Z,16.64
2022-08-12T04:45:33.569Z,16.61
2022-08-12T04:46:34.592Z,16.57
2022-08-12T04:47:33.568Z,16.61
2022-08-12T04:48:33.568Z,16.56
2022-08-12T04:49:33.570Z,16.71
2022-08-12T04:50:36.295Z,16.58
2022-08-12T04:51:33.575Z,16.69
2022-08-12T04:52:35.038Z,16.72
2022-08-12T04:53:33.573Z,16.66
2022-08-12T04:54:33.611Z,16.69
2022-08-12T04:55:33.603Z,16.74
2022-08-12T04:56:35.524Z,16.75
2022-08-12T04:57:33.580Z,16.81
2022-08-12T04:58:33.576Z,16.79
2022-08-12T04:59:48.502Z,16.86
2022-08-12T05:00:33.578Z,16.99
2022-08-12T05:01:33.582Z,16.96
2022-08-12T05:02:33.732Z,16.96
2022-08-12T05:03:46.539Z,16.96
2022-08-12T05:04:33.582Z,17.04
2022-08-12T05:05:36.131Z,17.09
2022-08-12T05:06:33.583Z,17.15
2022-08-12T05:07:33.588Z,17.11
2022-08-12T05:08:33.604Z,17.09
2022-08-12T05:10:00.925Z,17.08
2022-08-12T05:10:35.837Z,17.09
2022-08-12T05:11:33.594Z,17.14
2022-08-12T05:12:33.592Z,17.20
2022-08-12T05:13:33.596Z,17.24
2022-08-12T05:14:37.509Z,17.24
2022-08-12T05:15:33.597Z,17.29
2022-08-12T05:16:36.041Z,17.42
2022-08-12T05:17:33.600Z,17.41
2022-08-12T05:18:33.600Z,17.51
2022-08-12T05:19:33.600Z,17.52
2022-08-12T05:20:33.601Z,17.54
2022-08-12T05:21:33.603Z,17.48
2022-08-12T05:22:37.097Z,17.60
2022-08-12T05:23:33.606Z,17.72
2022-08-12T05:24:33.610Z,17.70
2022-08-12T05:25:33.608Z,17.85
2022-08-12T05:26:33.609Z,17.90
2022-08-12T05:27:33.613Z,17.86
2022-08-12T05:28:33.621Z,17.98
2022-08-12T05:30:07.972Z,17.95
2022-08-12T05:30:33.612Z,17.92
2022-08-12T05:31:40.461Z,18.10
2022-08-12T05:32:33.616Z,18.11
2022-08-12T05:33:33.618Z,18.11
2022-08-12T05:34:33.617Z,18.19
2022-08-12T05:35:33.619Z,18.22
2022-08-12T05:36:33.620Z,18.23
2022-08-12T05:37:33.625Z,18.37
2022-08-12T05:38:33.623Z,18.33
2022-08-12T05:39:33.692Z,18.31
2022-08-12T05:40:33.627Z,18.31
2022-08-12T05:41:33.629Z,18.34
2022-08-12T05:42:34.537Z,18.34
2022-08-12T05:43:33.633Z,18.43
2022-08-12T05:44:33.633Z,18.47
2022-08-12T05:45:33.633Z,18.52
2022-08-12T05:46:33.635Z,18.60
2022-08-12T05:47:53.105Z,18.70
2022-08-12T05:48:33.638Z,18.77
2022-08-12T05:49:33.637Z,18.75
2022-08-12T05:50:33.639Z,18.78
2022-08-12T05:51:40.782Z,18.77
2022-08-12T05:52:33.659Z,18.83
2022-08-12T05:53:33.644Z,18.88
2022-08-12T05:54:54.712Z,18.95
2022-08-12T05:55:33.645Z,18.98
2022-08-12T05:56:33.850Z,18.89
2022-08-12T05:57:33.650Z,18.96
2022-08-12T05:58:33.655Z,19.02
2022-08-12T05:59:33.652Z,19.02
2022-08-12T06:00:33.656Z,19.02
2022-08-12T06:02:12.106Z,19.00
2022-08-12T06:02:33.665Z,19.19
2022-08-12T06:03:33.831Z,19.16
2022-08-12T06:04:33.657Z,19.15
2022-08-12T06:05:33.664Z,19.29
2022-08-12T06:06:37.685Z,19.16
2022-08-12T06:07:59.885Z,19.31
2022-08-12T06:08:33.669Z,19.34
2022-08-12T06:09:33.668Z,19.34
2022-08-12T06:10:33.732Z,19.36
2022-08-12T06:11:33.672Z,19.37
2022-08-12T06:12:33.673Z,19.31
2022-08-12T06:13:53.196Z,19.37
2022-08-12T06:14:33.682Z,19.40
2022-08-12T06:15:33.685Z,19.45
2022-08-12T06:16:33.688Z,19.51
2022-08-12T06:17:33.682Z,19.49
2022-08-12T06:18:33.690Z,19.56
2022-08-12T06:20:26.299Z,19.55
2022-08-12T06:20:34.410Z,19.58
2022-08-12T06:21:33.686Z,19.52
2022-08-12T06:22:33.693Z,19.66
2022-08-12T06:23:33.691Z,19.63
2022-08-12T06:24:33.696Z,19.74
2022-08-12T06:25:33.692Z,19.71
2022-08-12T06:26:33.697Z,19.71
2022-08-12T06:27:33.695Z,19.70
2022-08-12T06:28:33.699Z,19.81
2022-08-12T06:30:10.300Z,19.85
2022-08-12T06:30:37.867Z,19.85
2022-08-12T06:31:33.702Z,19.79
2022-08-12T06:32:34.562Z,19.81
2022-08-12T06:33:59.898Z,19.89
2022-08-12T06:35:22.986Z,19.91
2022-08-12T06:35:48.532Z,20.00
2022-08-12T06:36:33.886Z,20.00
2022-08-12T06:37:33.718Z,19.96
2022-08-12T06:38:33.717Z,20.03
2022-08-12T06:39:33.762Z,20.04
2022-08-12T06:40:33.728Z,20.13
2022-08-12T06:41:33.722Z,20.07
2022-08-12T06:42:33.726Z,20.10
2022-08-12T06:44:07.188Z,20.09
2022-08-12T06:44:33.727Z,20.18
2022-08-12T06:45:45.417Z,20.24
2022-08-12T06:46:33.732Z,20.13
2022-08-12T06:47:33.734Z,20.26
2022-08-12T06:48:33.744Z,20.25
2022-08-12T06:49:33.742Z,20.41
2022-08-12T06:50:36.868Z,20.34
2022-08-12T06:51:33.743Z,20.37
2022-08-12T06:52:33.748Z,20.37
2022-08-12T06:53:33.747Z,20.50
2022-08-12T06:54:33.762Z,20.52
2022-08-12T06:55:33.749Z,20.56
2022-08-12T06:57:02.505Z,20.59
2022-08-12T06:58:05.099Z,20.62
2022-08-12T06:58:33.763Z,20.56
2022-08-12T06:59:33.756Z,20.70
2022-08-12T07:00:33.812Z,20.74
2022-08-12T07:01:33.786Z,20.74
2022-08-12T07:02:37.041Z,20.75
2022-08-12T07:03:33.767Z,20.82
2022-08-12T07:04:36.792Z,20.87
2022-08-12T07:05:33.771Z,20.96
2022-08-12T07:06:33.773Z,20.96
2022-08-12T07:07:33.777Z,20.95
2022-08-12T07:08:33.780Z,20.99
2022-08-12T07:10:00.007Z,21.03
2022-08-12T07:10:33.783Z,21.12
2022-08-12T07:11:33.789Z,21.12
2022-08-12T07:12:33.789Z,21.27
2022-08-12T07:13:33.790Z,21.29
2022-08-12T07:14:36.426Z,21.29
2022-08-12T07:15:33.795Z,21.36
2022-08-12T07:16:33.799Z,21.36
2022-08-12T07:17:33.800Z,21.35
2022-08-12T07:18:33.804Z,21.42
2022-08-12T07:19:45.149Z,21.45
2022-08-12T07:20:51.866Z,21.48
2022-08-12T07:22:00.192Z,21.48
2022-08-12T07:22:33.815Z,21.48
2022-08-12T07:23:33.816Z,21.57
2022-08-12T07:24:33.818Z,21.61
2022-08-12T07:25:37.743Z,21.69
2022-08-12T07:26:33.824Z,21.72
2022-08-12T07:27:33.832Z,21.75
2022-08-12T07:28:33.826Z,21.85
2022-08-12T07:30:04.032Z,21.99
2022-08-12T07:30:33.833Z,22.10
2022-08-12T07:31:33.857Z,22.11
2022-08-12T07:32:33.838Z,22.20
2022-08-12T07:33:33.840Z,22.22
2022-08-12T07:34:33.855Z,22.29
2022-08-12T07:35:33.845Z,22.41
2022-08-12T07:36:33.851Z,22.55
2022-08-12T07:37:33.854Z,22.69
2022-08-12T07:38:33.927Z,22.65
2022-08-12T07:39:33.912Z,22.72
2022-08-12T07:40:33.876Z,22.80
2022-08-12T07:41:33.877Z,22.76
2022-08-12T07:42:33.867Z,22.88
2022-08-12T07:43:33.867Z,23.02
2022-08-12T07:44:33.879Z,22.96
2022-08-12T07:45:33.875Z,23.12
2022-08-12T07:46:33.877Z,23.31
2022-08-12T07:47:33.879Z,23.31
2022-08-12T07:48:33.888Z,23.36
2022-08-12T07:49:33.895Z,23.55
2022-08-12T07:50:33.891Z,23.61
2022-08-12T07:51:33.898Z,23.71
2022-08-12T07:52:33.898Z,23.78
2022-08-12T07:53:33.902Z,23.77
2022-08-12T07:54:33.904Z,23.80
2022-08-12T07:55:33.905Z,23.84
2022-08-12T07:56:34.063Z,23.92
2022-08-12T07:57:33.914Z,23.87
2022-08-12T07:58:33.913Z,23.99
2022-08-12T07:59:33.926Z,24.03
2022-08-12T08:00:33.923Z,24.11
2022-08-12T08:01:34.026Z,24.18
2022-08-12T08:02:34.052Z,24.24
2022-08-12T08:03:33.930Z,24.36
2022-08-12T08:04:33.943Z,24.48
2022-08-12T08:05:33.941Z,24.54
2022-08-12T08:06:33.944Z,24.68
2022-08-12T08:07:33.944Z,24.80
2022-08-12T08:08:33.952Z,24.88
2022-08-12T08:09:33.953Z,24.81
2022-08-12T08:10:33.958Z,24.92
2022-08-12T08:11:33.995Z,25.04
2022-08-12T08:12:33.970Z,25.17
2022-08-12T08:13:33.972Z,25.23
2022-08-12T08:14:33.977Z,25.28
2022-08-12T08:16:01.119Z,25.31
2022-08-12T08:16:33.981Z,25.44
2022-08-12T08:17:33.984Z,25.59
2022-08-12T08:18:33.991Z,25.54
2022-08-12T08:19:48.574Z,25.68
2022-08-12T08:20:34.016Z,25.70
2022-08-12T08:21:34.000Z,25.81
2022-08-12T08:22:41.354Z,25.83
2022-08-12T08:23:35.182Z,25.88
2022-08-12T08:24:34.016Z,26.09
2022-08-12T08:25:36.146Z,26.07
2022-08-12T08:26:34.033Z,26.13
2022-08-12T08:27:34.034Z,26.21
2022-08-12T08:28:34.041Z,26.38
2022-08-12T08:29:34.038Z,26.36
2022-08-12T08:30:34.042Z,26.48
2022-08-12T08:31:34.049Z,26.45
2022-08-12T08:32:34.053Z,26.59
2022-08-12T08:34:09.292Z,26.65
2022-08-12T08:34:52.995Z,26.66
2022-08-12T08:35:46.270Z,26.65
2022-08-12T08:36:34.076Z,26.73
2022-08-12T08:37:36.326Z,26.89
2022-08-12T08:38:35.392Z,26.99
2022-08-12T08:39:34.165Z,27.08
2022-08-12T08:40:34.100Z,27.15
2022-08-12T08:42:16.029Z,27.25
2022-08-12T08:42:34.115Z,27.33
2022-08-12T08:43:44.642Z,27.37
2022-08-12T08:44:34.126Z,27.42
2022-08-12T08:45:34.136Z,27.44
2022-08-12T08:46:34.144Z,27.39
2022-08-12T08:47:34.146Z,27.45
2022-08-12T08:48:34.156Z,27.48
2022-08-12T08:49:34.338Z,27.48
2022-08-12T08:50:34.172Z,27.44
2022-08-12T08:51:34.179Z,27.47
2022-08-12T08:52:39.701Z,27.44
2022-08-12T08:53:34.190Z,27.32
2022-08-12T08:54:34.201Z,27.26
2022-08-12T08:56:03.251Z,27.20
2022-08-12T08:56:34.412Z,27.27
2022-08-12T08:57:42.847Z,27.20
2022-08-12T08:58:34.226Z,27.21
2022-08-12T08:59:34.230Z,27.33
2022-08-12T09:00:34.239Z,27.45
2022-08-12T09:01:37.870Z,27.52
2022-08-12T09:02:34.250Z,27.58
2022-08-12T09:05:12.845Z,27.67
2022-08-12T09:06:01.663Z,27.67
2022-08-12T09:06:37.337Z,27.74
2022-08-12T09:07:51.945Z,27.73
2022-08-12T09:08:34.292Z,27.75
2022-08-12T09:10:01.996Z,27.73
2022-08-12T09:10:34.304Z,27.83
2022-08-12T09:12:06.821Z,27.78
2022-08-12T09:14:11.253Z,27.78
2022-08-12T09:14:34.328Z,27.90
2022-08-12T09:15:35.377Z,27.92
2022-08-12T09:16:39.422Z,27.93
2022-08-12T09:17:42.275Z,28.00
2022-08-12T09:18:34.388Z,28.02
2022-08-12T09:19:34.354Z,28.00
2022-08-12T09:20:34.362Z,27.95
2022-08-12T09:21:54.361Z,28.00
2022-08-12T09:22:35.111Z,27.93
2022-08-12T09:23:58.601Z,28.02
2022-08-12T09:24:34.390Z,27.98
2022-08-12T09:25:34.389Z,28.00
2022-08-12T09:26:45.804Z,27.98
2022-08-12T09:28:34.435Z,27.80
2022-08-12T09:30:11.235Z,27.83
2022-08-12T09:30:41.410Z,27.68
2022-08-12T09:32:02.723Z,27.59
2022-08-12T09:33:05.108Z,27.54
2022-08-12T09:34:25.212Z,27.40
2022-08-12T09:34:36.422Z,27.40
2022-08-12T09:35:42.565Z,27.33
2022-08-12T09:37:00.007Z,27.35
2022-08-12T09:37:57.713Z,27.33
2022-08-12T09:38:35.391Z,27.35
2022-08-12T09:40:01.425Z,27.32
2022-08-12T09:40:57.817Z,27.44
2022-08-12T09:42:32.852Z,27.44
2022-08-12T09:42:54.108Z,27.52
2022-08-12T09:43:34.555Z,27.60
2022-08-12T09:44:39.250Z,27.63
2022-08-12T09:46:06.761Z,27.70
2022-08-12T09:46:34.932Z,27.65
2022-08-12T09:47:34.512Z,27.74
2022-08-12T09:48:35.085Z,27.74
2022-08-12T09:49:38.551Z,27.70
2022-08-12T09:50:34.531Z,27.68
2022-08-12T09:51:37.211Z,27.73
2022-08-12T09:52:34.539Z,27.73
2022-08-12T09:53:38.294Z,27.75
2022-08-12T09:54:35.416Z,27.64
2022-08-12T09:55:57.322Z,27.70
2022-08-12T09:57:00.985Z,27.63
2022-08-12T09:58:45.998Z,27.54
2022-08-12T09:58:56.961Z,27.45
2022-08-12T10:00:14.854Z,27.44
2022-08-12T10:00:43.124Z,27.32
2022-08-12T10:02:42.036Z,27.35
2022-08-12T10:02:45.045Z,27.29
2022-08-12T10:03:34.639Z,27.33
2022-08-12T10:04:34.679Z,27.32
2022-08-12T10:06:26.532Z,27.47
2022-08-12T10:06:36.150Z,27.52
2022-08-12T10:07:40.316Z,27.65
2022-08-12T10:08:34.629Z,27.67
2022-08-12T10:09:58.212Z,27.58
2022-08-12T10:10:37.602Z,27.47
2022-08-12T10:12:11.908Z,27.44
2022-08-12T10:12:34.645Z,27.37
2022-08-12T10:13:40.154Z,27.25
2022-08-12T10:14:37.050Z,27.21
2022-08-12T10:16:02.180Z,27.21
2022-08-12T10:16:39.333Z,27.18
2022-08-12T10:17:34.672Z,27.17
2022-08-12T10:18:35.771Z,27.02
2022-08-12T10:19:36.588Z,27.11
2022-08-12T10:20:34.689Z,27.08
2022-08-12T10:21:36.095Z,26.96
2022-08-12T10:22:49.324Z,27.00
2022-08-12T10:23:39.827Z,26.95
2022-08-12T10:24:34.709Z,26.97
2022-08-12T10:26:34.464Z,27.00
2022-08-12T10:26:39.081Z,27.02
2022-08-12T10:27:39.472Z,27.00
2022-08-12T10:28:34.731Z,27.07
2022-08-12T10:30:03.155Z,27.03
2022-08-12T10:30:40.712Z,27.00
2022-08-12T10:31:47.182Z,27.00
2022-08-12T10:33:02.162Z,26.95
2022-08-12T10:33:54.065Z,26.90
2022-08-12T10:34:34.763Z,27.00
2022-08-12T10:35:37.910Z,27.00
2022-08-12T10:36:36.116Z,26.95
2022-08-12T10:38:38.882Z,26.95
2022-08-12T10:38:41.439Z,26.90
2022-08-12T10:40:00.080Z,26.90
2022-08-12T10:40:34.938Z,26.75
2022-08-12T10:41:58.207Z,26.81
2022-08-12T10:42:34.815Z,26.71
2022-08-12T10:43:55.447Z,26.71
2022-08-12T10:44:34.814Z,26.60
2022-08-12T10:45:38.235Z,26.70
2022-08-12T10:46:34.827Z,26.68
2022-08-12T10:48:20.353Z,26.62
2022-08-12T10:48:34.951Z,26.71
2022-08-12T10:50:02.792Z,26.88
2022-08-12T10:51:01.680Z,26.97
2022-08-12T10:52:03.815Z,27.14
2022-08-12T10:52:37.951Z,27.20
2022-08-12T10:53:46.040Z,27.26
2022-08-12T10:54:34.865Z,27.15
2022-08-12T10:55:35.557Z,27.18
2022-08-12T10:56:35.523Z,27.21
2022-08-12T10:58:15.561Z,27.18
2022-08-12T10:58:34.885Z,27.18
2022-08-12T11:00:29.206Z,27.35
2022-08-12T11:00:55.262Z,27.35
2022-08-12T11:04:19.243Z,27.45
2022-08-12T11:04:25.126Z,27.48
2022-08-12T11:04:26.121Z,27.67
2022-08-12T11:04:45.421Z,27.71
2022-08-12T11:07:06.906Z,27.74
2022-08-12T11:07:08.650Z,27.71
2022-08-12T11:08:36.511Z,27.64
2022-08-12T11:08:42.268Z,27.64
2022-08-12T11:09:56.495Z,27.65
2022-08-12T11:10:34.975Z,27.74
2022-08-12T11:12:35.506Z,27.77
2022-08-12T11:12:58.988Z,27.87
2022-08-12T11:13:45.738Z,27.95
2022-08-12T11:14:49.157Z,27.98
2022-08-12T11:16:19.543Z,28.04
2022-08-12T11:16:35.376Z,28.08
2022-08-12T11:17:52.117Z,28.04
2022-08-12T11:18:34.991Z,28.04
2022-08-12T11:19:34.999Z,28.00
2022-08-12T11:20:35.007Z,27.96
2022-08-12T11:21:57.727Z,27.93
2022-08-12T11:22:35.207Z,28.02
2022-08-12T11:23:37.042Z,28.02
2022-08-12T11:24:35.033Z,28.00
2022-08-12T11:25:56.141Z,28.01
2022-08-12T11:26:35.040Z,28.00
2022-08-12T11:27:35.112Z,28.00
2022-08-12T11:28:36.966Z,28.00
2022-08-12T11:30:02.000Z,27.89
2022-08-12T11:30:35.055Z,27.80
2022-08-12T11:31:56.287Z,27.74
2022-08-12T11:32:38.452Z,27.67
2022-08-12T11:34:06.720Z,27.68
2022-08-12T11:34:53.832Z,27.65
2022-08-12T11:35:35.087Z,27.58
2022-08-12T11:36:39.373Z,27.63
2022-08-12T11:37:58.283Z,27.58
2022-08-12T11:38:35.068Z,27.45
2022-08-12T11:40:03.463Z,27.40
2022-08-12T11:40:35.081Z,27.39
2022-08-12T11:41:35.090Z,27.33
2022-08-12T11:42:35.320Z,27.29
2022-08-12T11:43:50.489Z,27.27
2022-08-12T11:44:43.157Z,27.21
2022-08-12T11:45:38.974Z,27.20
2022-08-12T11:46:35.117Z,27.22
2022-08-12T11:47:35.131Z,27.21
2022-08-12T11:48:51.308Z,27.12
2022-08-12T11:49:35.136Z,27.17
2022-08-12T11:50:35.137Z,27.25
2022-08-12T11:51:38.792Z,27.27
2022-08-12T11:52:55.756Z,27.37
2022-08-12T11:53:58.256Z,27.49
2022-08-12T11:54:35.163Z,27.63
2022-08-12T11:55:35.174Z,27.60
2022-08-12T11:56:38.269Z,27.60
2022-08-12T11:58:19.782Z,27.60
2022-08-12T12:01:05.662Z,27.58
2022-08-12T12:02:03.066Z,27.54
2022-08-12T12:02:35.266Z,27.55
2022-08-12T12:03:45.692Z,27.52
2022-08-12T12:04:35.217Z,27.48
2022-08-12T12:05:41.954Z,27.55
2022-08-12T12:06:35.233Z,27.60
2022-08-12T12:08:38.489Z,27.59
2022-08-12T12:08:38.901Z,27.54
2022-08-12T12:09:42.868Z,27.65
2022-08-12T12:10:35.254Z,27.71
2022-08-12T12:11:49.134Z,27.73
2022-08-12T12:12:35.266Z,27.70
2022-08-12T12:14:08.032Z,27.86
2022-08-12T12:14:38.146Z,27.60
2022-08-12T12:15:40.640Z,27.70
2022-08-12T12:16:38.259Z,27.64
2022-08-12T12:17:38.339Z,27.65
2022-08-12T12:18:35.300Z,27.42
2022-08-12T12:19:39.709Z,27.40
2022-08-12T12:20:35.313Z,27.33
2022-08-12T12:21:47.437Z,27.36
2022-08-12T12:22:35.323Z,27.33
2022-08-12T12:23:36.308Z,27.25
2022-08-12T12:24:35.380Z,27.18
2022-08-12T12:25:59.514Z,27.11
2022-08-12T12:26:38.341Z,27.02
2022-08-12T12:27:59.301Z,27.03
2022-08-12T12:28:35.489Z,26.90
2022-08-12T12:30:19.075Z,26.92
2022-08-12T12:30:35.381Z,26.90
2022-08-12T12:32:10.659Z,26.85
2022-08-12T12:32:35.385Z,26.89
2022-08-12T12:33:57.479Z,26.90
2022-08-12T12:34:35.390Z,26.97
2022-08-12T12:36:19.832Z,27.03
2022-08-12T12:36:35.403Z,27.14
2022-08-12T12:38:04.436Z,27.17
2022-08-12T12:38:35.417Z,27.20
2022-08-12T12:39:54.797Z,27.14
2022-08-12T12:40:35.428Z,27.17
2022-08-12T12:42:42.443Z,27.20
2022-08-12T12:42:45.247Z,27.17
2022-08-12T12:43:43.052Z,27.27
2022-08-12T12:44:41.939Z,27.26
2022-08-12T12:45:35.709Z,27.27
2022-08-12T12:46:35.458Z,27.21
2022-08-12T12:47:35.466Z,27.22
2022-08-12T12:48:35.472Z,27.12
2022-08-12T12:49:35.479Z,27.11
2022-08-12T12:50:42.384Z,27.10
2022-08-12T12:51:48.657Z,27.10
2022-08-12T12:52:35.496Z,27.11
2022-08-12T12:54:07.453Z,27.11
2022-08-12T12:54:35.504Z,27.15
2022-08-12T12:55:36.071Z,27.12
2022-08-12T12:56:35.642Z,27.17
2022-08-12T12:57:36.191Z,27.25